<?xml version="1.0" encoding="UTF-8" standalone="no" ?>
<gpx xmlns="http://www.topografix.com/GPX/1/1" xmlns:xsi="http://www.w3.org/2001/XMLSchema-instance" xsi:schemaLocation="http://www.topografix.com/GPX/1/1 http://www.topografix.com/GPX/1/1/gpx.xsd" version="1.1" creator="VisuGPX - https://www.visugpx.com">
  <metadata>
    <name>Prepa MegaRando</name>
    <desc><![CDATA[Total: 4.9km]]></desc>
  </metadata>
  <trk>
    <name><![CDATA[NewTrack]]></name>
    <desc><![CDATA[Total: 18.0km]]></desc>
    <extensions>
      <line xmlns="http://www.topografix.com/GPX/gpx_style/0/2">
        <color>888800</color>
        <width>4</width>
      </line>
    </extensions>
    <trkseg>
      <trkpt lat="44.68479" lon="-0.11285">
        <ele>83.1</ele>
        <time>2016-01-22T09:54:07Z</time>
      </trkpt>
      <trkpt lat="44.68486" lon="-0.11288">
        <ele>83.41</ele>
        <time>2016-01-22T09:54:09Z</time>
      </trkpt>
      <trkpt lat="44.6856" lon="-0.10967">
        <ele>87.56</ele>
        <time>2016-01-22T09:55:18Z</time>
      </trkpt>
      <trkpt lat="44.68584" lon="-0.10778">
        <ele>88.67</ele>
        <time>2016-01-22T09:55:57Z</time>
      </trkpt>
      <trkpt lat="44.68601" lon="-0.10739">
        <ele>88.07</ele>
        <time>2016-01-22T09:56:06Z</time>
      </trkpt>
      <trkpt lat="44.68613" lon="-0.10747">
        <ele>88.32</ele>
        <time>2016-01-22T09:56:10Z</time>
      </trkpt>
      <trkpt lat="44.68636" lon="-0.10752">
        <ele>88.65</ele>
        <time>2016-01-22T09:56:17Z</time>
      </trkpt>
      <trkpt lat="44.68682" lon="-0.10758">
        <ele>89.39</ele>
        <time>2016-01-22T09:56:30Z</time>
      </trkpt>
      <trkpt lat="44.68722" lon="-0.10764">
        <ele>90.44</ele>
        <time>2016-01-22T09:56:42Z</time>
      </trkpt>
      <trkpt lat="44.68763" lon="-0.10765">
        <ele>91.62</ele>
        <time>2016-01-22T09:56:53Z</time>
      </trkpt>
      <trkpt lat="44.68823" lon="-0.10766">
        <ele>93.65</ele>
        <time>2016-01-22T09:57:10Z</time>
      </trkpt>
      <trkpt lat="44.68907" lon="-0.10756">
        <ele>95.71</ele>
        <time>2016-01-22T09:57:35Z</time>
      </trkpt>
      <trkpt lat="44.69006" lon="-0.10772">
        <ele>93.7</ele>
        <time>2016-01-22T09:58:03Z</time>
      </trkpt>
      <trkpt lat="44.69082" lon="-0.10774">
        <ele>93.3</ele>
        <time>2016-01-22T09:58:25Z</time>
      </trkpt>
      <trkpt lat="44.6911" lon="-0.10782">
        <ele>92.49</ele>
        <time>2016-01-22T09:58:33Z</time>
      </trkpt>
      <trkpt lat="44.69138" lon="-0.10786">
        <ele>91.55</ele>
        <time>2016-01-22T09:58:41Z</time>
      </trkpt>
      <trkpt lat="44.69222" lon="-0.10781">
        <ele>88.39</ele>
        <time>2016-01-22T09:59:05Z</time>
      </trkpt>
      <trkpt lat="44.69326" lon="-0.10748">
        <ele>88.92</ele>
        <time>2016-01-22T09:59:35Z</time>
      </trkpt>
      <trkpt lat="44.69443" lon="-0.10739">
        <ele>89.05</ele>
        <time>2016-01-22T10:00:09Z</time>
      </trkpt>
      <trkpt lat="44.69495" lon="-0.10752">
        <ele>88.98</ele>
        <time>2016-01-22T10:00:24Z</time>
      </trkpt>
      <trkpt lat="44.69599" lon="-0.1084">
        <ele>86.86</ele>
        <time>2016-01-22T10:00:59Z</time>
      </trkpt>
      <trkpt lat="44.69632" lon="-0.10877">
        <ele>86.26</ele>
        <time>2016-01-22T10:01:11Z</time>
      </trkpt>
      <trkpt lat="44.69747" lon="-0.10921">
        <ele>83.04</ele>
        <time>2016-01-22T10:01:45Z</time>
      </trkpt>
      <trkpt lat="44.6999" lon="-0.10814">
        <ele>86.5</ele>
        <time>2016-01-22T10:02:58Z</time>
      </trkpt>
      <trkpt lat="44.70095" lon="-0.10748">
        <ele>84.19</ele>
        <time>2016-01-22T10:03:31Z</time>
      </trkpt>
      <trkpt lat="44.702" lon="-0.10672">
        <ele>88.61</ele>
        <time>2016-01-22T10:04:04Z</time>
      </trkpt>
      <trkpt lat="44.70303" lon="-0.10612">
        <ele>89.96</ele>
        <time>2016-01-22T10:04:36Z</time>
      </trkpt>
      <trkpt lat="44.70368" lon="-0.10583">
        <ele>92.26</ele>
        <time>2016-01-22T10:04:56Z</time>
      </trkpt>
      <trkpt lat="44.70452" lon="-0.10504">
        <ele>99.15</ele>
        <time>2016-01-22T10:05:25Z</time>
      </trkpt>
      <trkpt lat="44.70637" lon="-0.10437">
        <ele>102.57</ele>
        <time>2016-01-22T10:06:19Z</time>
      </trkpt>
      <trkpt lat="44.70704" lon="-0.10571">
        <ele>105.19</ele>
        <time>2016-01-22T10:06:53Z</time>
      </trkpt>
      <trkpt lat="44.70746" lon="-0.1068">
        <ele>107.72</ele>
        <time>2016-01-22T10:07:18Z</time>
      </trkpt>
      <trkpt lat="44.70851" lon="-0.10585">
        <ele>96.81</ele>
        <time>2016-01-22T10:07:54Z</time>
      </trkpt>
      <trkpt lat="44.70937" lon="-0.10501">
        <ele>90.52</ele>
        <time>2016-01-22T10:08:24Z</time>
      </trkpt>
      <trkpt lat="44.70967" lon="-0.10471">
        <ele>89.23</ele>
        <time>2016-01-22T10:08:34Z</time>
      </trkpt>
      <trkpt lat="44.70985" lon="-0.10476">
        <ele>88.84</ele>
        <time>2016-01-22T10:08:40Z</time>
      </trkpt>
      <trkpt lat="44.71007" lon="-0.105">
        <ele>89</ele>
        <time>2016-01-22T10:08:48Z</time>
      </trkpt>
      <trkpt lat="44.71026" lon="-0.10516">
        <ele>89.37</ele>
        <time>2016-01-22T10:08:54Z</time>
      </trkpt>
      <trkpt lat="44.71043" lon="-0.10501">
        <ele>89.03</ele>
        <time>2016-01-22T10:09:00Z</time>
      </trkpt>
      <trkpt lat="44.7108" lon="-0.10322">
        <ele>87.68</ele>
        <time>2016-01-22T10:09:38Z</time>
      </trkpt>
      <trkpt lat="44.71092" lon="-0.10265">
        <ele>86.36</ele>
        <time>2016-01-22T10:09:50Z</time>
      </trkpt>
      <trkpt lat="44.71093" lon="-0.10236">
        <ele>85.42</ele>
        <time>2016-01-22T10:09:56Z</time>
      </trkpt>
      <trkpt lat="44.71137" lon="-0.10097">
        <ele>79.66</ele>
        <time>2016-01-22T10:10:27Z</time>
      </trkpt>
      <trkpt lat="44.71173" lon="-0.09953">
        <ele>77.9</ele>
        <time>2016-01-22T10:10:58Z</time>
      </trkpt>
      <trkpt lat="44.71186" lon="-0.09929">
        <ele>77.55</ele>
        <time>2016-01-22T10:11:04Z</time>
      </trkpt>
      <trkpt lat="44.71306" lon="-0.0986">
        <ele>75.68</ele>
        <time>2016-01-22T10:11:41Z</time>
      </trkpt>
      <trkpt lat="44.71383" lon="-0.09997">
        <ele>78.58</ele>
        <time>2016-01-22T10:12:17Z</time>
      </trkpt>
      <trkpt lat="44.71435" lon="-0.1007">
        <ele>79.95</ele>
        <time>2016-01-22T10:12:38Z</time>
      </trkpt>
      <trkpt lat="44.71468" lon="-0.10105">
        <ele>80.36</ele>
        <time>2016-01-22T10:12:50Z</time>
      </trkpt>
      <trkpt lat="44.71505" lon="-0.10137">
        <ele>80.84</ele>
        <time>2016-01-22T10:13:02Z</time>
      </trkpt>
      <trkpt lat="44.71804" lon="-0.1038">
        <ele>91.74</ele>
        <time>2016-01-22T10:14:41Z</time>
      </trkpt>
      <trkpt lat="44.71857" lon="-0.10415">
        <ele>92.02</ele>
        <time>2016-01-22T10:14:57Z</time>
      </trkpt>
      <trkpt lat="44.71961" lon="-0.1044">
        <ele>91.75</ele>
        <time>2016-01-22T10:15:28Z</time>
      </trkpt>
      <trkpt lat="44.71961" lon="-0.10404">
        <ele>91.31</ele>
        <time>2016-01-22T10:15:35Z</time>
      </trkpt>
      <trkpt lat="44.71954" lon="-0.1036">
        <ele>90.94</ele>
        <time>2016-01-22T10:15:44Z</time>
      </trkpt>
      <trkpt lat="44.71797" lon="-0.10154">
        <ele>90.34</ele>
        <time>2016-01-22T10:16:46Z</time>
      </trkpt>
      <trkpt lat="44.7178" lon="-0.10128">
        <ele>90.47</ele>
        <time>2016-01-22T10:16:53Z</time>
      </trkpt>
      <trkpt lat="44.71773" lon="-0.10107">
        <ele>90.52</ele>
        <time>2016-01-22T10:16:58Z</time>
      </trkpt>
      <trkpt lat="44.71762" lon="-0.10066">
        <ele>90.32</ele>
        <time>2016-01-22T10:17:06Z</time>
      </trkpt>
      <trkpt lat="44.71749" lon="-0.10043">
        <ele>90.02</ele>
        <time>2016-01-22T10:17:12Z</time>
      </trkpt>
      <trkpt lat="44.7174" lon="-0.09971">
        <ele>89</ele>
        <time>2016-01-22T10:17:27Z</time>
      </trkpt>
      <trkpt lat="44.71698" lon="-0.09828">
        <ele>87.83</ele>
        <time>2016-01-22T10:17:59Z</time>
      </trkpt>
      <trkpt lat="44.7174" lon="-0.09813">
        <ele>86.33</ele>
        <time>2016-01-22T10:18:11Z</time>
      </trkpt>
      <trkpt lat="44.71752" lon="-0.09797">
        <ele>85.95</ele>
        <time>2016-01-22T10:18:16Z</time>
      </trkpt>
      <trkpt lat="44.71788" lon="-0.09661">
        <ele>83.02</ele>
        <time>2016-01-22T10:18:45Z</time>
      </trkpt>
      <trkpt lat="44.7183" lon="-0.09527">
        <ele>80.43</ele>
        <time>2016-01-22T10:19:15Z</time>
      </trkpt>
      <trkpt lat="44.71848" lon="-0.09466">
        <ele>78.92</ele>
        <time>2016-01-22T10:19:29Z</time>
      </trkpt>
      <trkpt lat="44.71862" lon="-0.09399">
        <ele>77.78</ele>
        <time>2016-01-22T10:19:43Z</time>
      </trkpt>
      <trkpt lat="44.71861" lon="-0.09389">
        <ele>78.12</ele>
        <time>2016-01-22T10:19:45Z</time>
      </trkpt>
      <trkpt lat="44.71949" lon="-0.0903">
        <ele>72.85</ele>
        <time>2016-01-22T10:21:02Z</time>
      </trkpt>
      <trkpt lat="44.71949" lon="-0.09005">
        <ele>71.68</ele>
        <time>2016-01-22T10:21:07Z</time>
      </trkpt>
      <trkpt lat="44.7194" lon="-0.08978">
        <ele>71.15</ele>
        <time>2016-01-22T10:21:13Z</time>
      </trkpt>
      <trkpt lat="44.71775" lon="-0.08634">
        <ele>66.85</ele>
        <time>2016-01-22T10:22:38Z</time>
      </trkpt>
      <trkpt lat="44.7176" lon="-0.08549">
        <ele>64.28</ele>
        <time>2016-01-22T10:22:56Z</time>
      </trkpt>
      <trkpt lat="44.72014" lon="-0.08336">
        <ele>80.7</ele>
        <time>2016-01-22T10:24:20Z</time>
      </trkpt>
      <trkpt lat="44.71944" lon="-0.08223">
        <ele>80.07</ele>
        <time>2016-01-22T10:24:51Z</time>
      </trkpt>
      <trkpt lat="44.71905" lon="-0.08194">
        <ele>79.32</ele>
        <time>2016-01-22T10:25:04Z</time>
      </trkpt>
      <trkpt lat="44.71875" lon="-0.08183">
        <ele>77.91</ele>
        <time>2016-01-22T10:25:13Z</time>
      </trkpt>
      <trkpt lat="44.71847" lon="-0.08175">
        <ele>76.53</ele>
        <time>2016-01-22T10:25:21Z</time>
      </trkpt>
      <trkpt lat="44.71775" lon="-0.08125">
        <ele>71.65</ele>
        <time>2016-01-22T10:25:44Z</time>
      </trkpt>
      <trkpt lat="44.71754" lon="-0.08097">
        <ele>70.25</ele>
        <time>2016-01-22T10:25:52Z</time>
      </trkpt>
      <trkpt lat="44.71729" lon="-0.08102">
        <ele>69.1</ele>
        <time>2016-01-22T10:25:59Z</time>
      </trkpt>
      <trkpt lat="44.71706" lon="-0.08113">
        <ele>68.26</ele>
        <time>2016-01-22T10:26:06Z</time>
      </trkpt>
      <trkpt lat="44.71662" lon="-0.08135">
        <ele>67.19</ele>
        <time>2016-01-22T10:26:20Z</time>
      </trkpt>
      <trkpt lat="44.71624" lon="-0.08143">
        <ele>66.92</ele>
        <time>2016-01-22T10:26:30Z</time>
      </trkpt>
      <trkpt lat="44.71588" lon="-0.08145">
        <ele>66.54</ele>
        <time>2016-01-22T10:26:41Z</time>
      </trkpt>
      <trkpt lat="44.71568" lon="-0.08126">
        <ele>66.11</ele>
        <time>2016-01-22T10:26:48Z</time>
      </trkpt>
      <trkpt lat="44.71464" lon="-0.07957">
        <ele>68.12</ele>
        <time>2016-01-22T10:27:33Z</time>
      </trkpt>
      <trkpt lat="44.71509" lon="-0.07901">
        <ele>68.03</ele>
        <time>2016-01-22T10:27:51Z</time>
      </trkpt>
      <trkpt lat="44.71593" lon="-0.07858">
        <ele>68.93</ele>
        <time>2016-01-22T10:28:16Z</time>
      </trkpt>
      <trkpt lat="44.71623" lon="-0.07653">
        <ele>76.31</ele>
        <time>2016-01-22T10:28:59Z</time>
      </trkpt>
      <trkpt lat="44.71631" lon="-0.07452">
        <ele>83.65</ele>
        <time>2016-01-22T10:29:40Z</time>
      </trkpt>
      <trkpt lat="44.7159" lon="-0.07255">
        <ele>89.85</ele>
        <time>2016-01-22T10:30:22Z</time>
      </trkpt>
      <trkpt lat="44.71567" lon="-0.07244">
        <ele>89.31</ele>
        <time>2016-01-22T10:30:29Z</time>
      </trkpt>
      <trkpt lat="44.71532" lon="-0.07238">
        <ele>87.77</ele>
        <time>2016-01-22T10:30:39Z</time>
      </trkpt>
      <trkpt lat="44.71501" lon="-0.0703">
        <ele>92.69</ele>
        <time>2016-01-22T10:31:22Z</time>
      </trkpt>
      <trkpt lat="44.71471" lon="-0.07006">
        <ele>91.86</ele>
        <time>2016-01-22T10:31:32Z</time>
      </trkpt>
      <trkpt lat="44.71374" lon="-0.07021">
        <ele>88.09</ele>
        <time>2016-01-22T10:32:00Z</time>
      </trkpt>
      <trkpt lat="44.71299" lon="-0.07022">
        <ele>86.43</ele>
        <time>2016-01-22T10:32:21Z</time>
      </trkpt>
      <trkpt lat="44.71258" lon="-0.06788">
        <ele>85.93</ele>
        <time>2016-01-22T10:33:10Z</time>
      </trkpt>
      <trkpt lat="44.71215" lon="-0.06562">
        <ele>93.78</ele>
        <time>2016-01-22T10:33:58Z</time>
      </trkpt>
      <trkpt lat="44.71159" lon="-0.06481">
        <ele>94.79</ele>
        <time>2016-01-22T10:34:21Z</time>
      </trkpt>
      <trkpt lat="44.71009" lon="-0.06333">
        <ele>95.22</ele>
        <time>2016-01-22T10:35:14Z</time>
      </trkpt>
      <trkpt lat="44.70886" lon="-0.06185">
        <ele>94.51</ele>
        <time>2016-01-22T10:36:00Z</time>
      </trkpt>
      <trkpt lat="44.70818" lon="-0.06103">
        <ele>95.98</ele>
        <time>2016-01-22T10:36:25Z</time>
      </trkpt>
      <trkpt lat="44.70785" lon="-0.06048">
        <ele>96.14</ele>
        <time>2016-01-22T10:36:40Z</time>
      </trkpt>
      <trkpt lat="44.70776" lon="-0.05987">
        <ele>96.67</ele>
        <time>2016-01-22T10:36:53Z</time>
      </trkpt>
      <trkpt lat="44.70765" lon="-0.05932">
        <ele>95.11</ele>
        <time>2016-01-22T10:37:04Z</time>
      </trkpt>
      <trkpt lat="44.70737" lon="-0.05863">
        <ele>91.72</ele>
        <time>2016-01-22T10:37:21Z</time>
      </trkpt>
      <trkpt lat="44.70707" lon="-0.05802">
        <ele>89.91</ele>
        <time>2016-01-22T10:37:36Z</time>
      </trkpt>
      <trkpt lat="44.70555" lon="-0.05671">
        <ele>85.07</ele>
        <time>2016-01-22T10:38:27Z</time>
      </trkpt>
      <trkpt lat="44.70487" lon="-0.05613">
        <ele>83.5</ele>
        <time>2016-01-22T10:38:49Z</time>
      </trkpt>
      <trkpt lat="44.70455" lon="-0.05593">
        <ele>82.63</ele>
        <time>2016-01-22T10:39:00Z</time>
      </trkpt>
      <trkpt lat="44.70418" lon="-0.05582">
        <ele>81.95</ele>
        <time>2016-01-22T10:39:10Z</time>
      </trkpt>
      <trkpt lat="44.7038" lon="-0.05578">
        <ele>80.45</ele>
        <time>2016-01-22T10:39:21Z</time>
      </trkpt>
      <trkpt lat="44.70314" lon="-0.05541">
        <ele>77.02</ele>
        <time>2016-01-22T10:39:41Z</time>
      </trkpt>
      <trkpt lat="44.70256" lon="-0.05499">
        <ele>75.88</ele>
        <time>2016-01-22T10:40:00Z</time>
      </trkpt>
      <trkpt lat="44.70187" lon="-0.05417">
        <ele>70.25</ele>
        <time>2016-01-22T10:40:26Z</time>
      </trkpt>
      <trkpt lat="44.70133" lon="-0.05359">
        <ele>65.17</ele>
        <time>2016-01-22T10:40:45Z</time>
      </trkpt>
      <trkpt lat="44.7011" lon="-0.05304">
        <ele>60.28</ele>
        <time>2016-01-22T10:40:59Z</time>
      </trkpt>
      <trkpt lat="44.70081" lon="-0.05251">
        <ele>54.99</ele>
        <time>2016-01-22T10:41:12Z</time>
      </trkpt>
      <trkpt lat="44.70049" lon="-0.0524">
        <ele>53.45</ele>
        <time>2016-01-22T10:41:22Z</time>
      </trkpt>
      <trkpt lat="44.69935" lon="-0.05227">
        <ele>50.53</ele>
        <time>2016-01-22T10:41:54Z</time>
      </trkpt>
      <trkpt lat="44.69824" lon="-0.04973">
        <ele>56.56</ele>
        <time>2016-01-22T10:42:55Z</time>
      </trkpt>
      <trkpt lat="44.69788" lon="-0.05011">
        <ele>54.26</ele>
        <time>2016-01-22T10:43:08Z</time>
      </trkpt>
      <trkpt lat="44.69772" lon="-0.05064">
        <ele>53.75</ele>
        <time>2016-01-22T10:43:20Z</time>
      </trkpt>
      <trkpt lat="44.69753" lon="-0.05135">
        <ele>53.32</ele>
        <time>2016-01-22T10:43:35Z</time>
      </trkpt>
      <trkpt lat="44.69744" lon="-0.05166">
        <ele>53.36</ele>
        <time>2016-01-22T10:43:42Z</time>
      </trkpt>
      <trkpt lat="44.69731" lon="-0.05192">
        <ele>52.85</ele>
        <time>2016-01-22T10:43:49Z</time>
      </trkpt>
      <trkpt lat="44.69696" lon="-0.05224">
        <ele>53.04</ele>
        <time>2016-01-22T10:44:01Z</time>
      </trkpt>
      <trkpt lat="44.69677" lon="-0.05233">
        <ele>53.5</ele>
        <time>2016-01-22T10:44:06Z</time>
      </trkpt>
      <trkpt lat="44.69591" lon="-0.05225">
        <ele>57.94</ele>
        <time>2016-01-22T10:44:31Z</time>
      </trkpt>
      <trkpt lat="44.69569" lon="-0.05239">
        <ele>58.92</ele>
        <time>2016-01-22T10:44:38Z</time>
      </trkpt>
      <trkpt lat="44.69479" lon="-0.05342">
        <ele>65.32</ele>
        <time>2016-01-22T10:45:11Z</time>
      </trkpt>
      <trkpt lat="44.69454" lon="-0.05373">
        <ele>64.84</ele>
        <time>2016-01-22T10:45:21Z</time>
      </trkpt>
      <trkpt lat="44.69402" lon="-0.05507">
        <ele>61.28</ele>
        <time>2016-01-22T10:45:52Z</time>
      </trkpt>
      <trkpt lat="44.69384" lon="-0.05584">
        <ele>62.81</ele>
        <time>2016-01-22T10:46:08Z</time>
      </trkpt>
      <trkpt lat="44.69362" lon="-0.05782">
        <ele>74.34</ele>
        <time>2016-01-22T10:46:49Z</time>
      </trkpt>
      <trkpt lat="44.69345" lon="-0.05847">
        <ele>77.28</ele>
        <time>2016-01-22T10:47:03Z</time>
      </trkpt>
      <trkpt lat="44.6931" lon="-0.0593">
        <ele>77.99</ele>
        <time>2016-01-22T10:47:23Z</time>
      </trkpt>
      <trkpt lat="44.69199" lon="-0.06143">
        <ele>65.12</ele>
        <time>2016-01-22T10:48:17Z</time>
      </trkpt>
      <trkpt lat="44.69047" lon="-0.0628">
        <ele>62.89</ele>
        <time>2016-01-22T10:49:09Z</time>
      </trkpt>
      <trkpt lat="44.69143" lon="-0.06522">
        <ele>61.69</ele>
        <time>2016-01-22T10:50:05Z</time>
      </trkpt>
      <trkpt lat="44.69174" lon="-0.06694">
        <ele>60.46</ele>
        <time>2016-01-22T10:50:41Z</time>
      </trkpt>
      <trkpt lat="44.69178" lon="-0.06848">
        <ele>60.26</ele>
        <time>2016-01-22T10:51:13Z</time>
      </trkpt>
      <trkpt lat="44.69124" lon="-0.06855">
        <ele>64.18</ele>
        <time>2016-01-22T10:51:28Z</time>
      </trkpt>
      <trkpt lat="44.69081" lon="-0.06892">
        <ele>66.43</ele>
        <time>2016-01-22T10:51:42Z</time>
      </trkpt>
      <trkpt lat="44.69054" lon="-0.06933">
        <ele>67.38</ele>
        <time>2016-01-22T10:51:54Z</time>
      </trkpt>
      <trkpt lat="44.69037" lon="-0.06986">
        <ele>66.6</ele>
        <time>2016-01-22T10:52:06Z</time>
      </trkpt>
      <trkpt lat="44.68863" lon="-0.07163">
        <ele>64.38</ele>
        <time>2016-01-22T10:53:07Z</time>
      </trkpt>
      <trkpt lat="44.68764" lon="-0.07246">
        <ele>63.18</ele>
        <time>2016-01-22T10:53:40Z</time>
      </trkpt>
      <trkpt lat="44.68796" lon="-0.07372">
        <ele>58.33</ele>
        <time>2016-01-22T10:54:07Z</time>
      </trkpt>
      <trkpt lat="44.68757" lon="-0.07412">
        <ele>57.06</ele>
        <time>2016-01-22T10:54:21Z</time>
      </trkpt>
      <trkpt lat="44.68721" lon="-0.07439">
        <ele>55.41</ele>
        <time>2016-01-22T10:54:33Z</time>
      </trkpt>
      <trkpt lat="44.68663" lon="-0.07474">
        <ele>53.09</ele>
        <time>2016-01-22T10:54:51Z</time>
      </trkpt>
      <trkpt lat="44.68609" lon="-0.07497">
        <ele>50.01</ele>
        <time>2016-01-22T10:55:07Z</time>
      </trkpt>
      <trkpt lat="44.68533" lon="-0.07501">
        <ele>50.21</ele>
        <time>2016-01-22T10:55:29Z</time>
      </trkpt>
      <trkpt lat="44.68507" lon="-0.07516">
        <ele>50.97</ele>
        <time>2016-01-22T10:55:37Z</time>
      </trkpt>
      <trkpt lat="44.68476" lon="-0.07557">
        <ele>52.26</ele>
        <time>2016-01-22T10:55:49Z</time>
      </trkpt>
      <trkpt lat="44.6844" lon="-0.07589">
        <ele>53.41</ele>
        <time>2016-01-22T10:56:01Z</time>
      </trkpt>
      <trkpt lat="44.68381" lon="-0.07622">
        <ele>56.19</ele>
        <time>2016-01-22T10:56:19Z</time>
      </trkpt>
      <trkpt lat="44.68426" lon="-0.07803">
        <ele>46.67</ele>
        <time>2016-01-22T10:56:58Z</time>
      </trkpt>
      <trkpt lat="44.68458" lon="-0.07877">
        <ele>46.49</ele>
        <time>2016-01-22T10:57:16Z</time>
      </trkpt>
      <trkpt lat="44.685" lon="-0.07947">
        <ele>48.37</ele>
        <time>2016-01-22T10:57:35Z</time>
      </trkpt>
      <trkpt lat="44.68595" lon="-0.08039">
        <ele>52.84</ele>
        <time>2016-01-22T10:58:08Z</time>
      </trkpt>
      <trkpt lat="44.6868" lon="-0.08171">
        <ele>56.8</ele>
        <time>2016-01-22T10:58:44Z</time>
      </trkpt>
      <trkpt lat="44.68644" lon="-0.08245">
        <ele>50.5</ele>
        <time>2016-01-22T10:59:03Z</time>
      </trkpt>
      <trkpt lat="44.68689" lon="-0.08299">
        <ele>51.9</ele>
        <time>2016-01-22T10:59:19Z</time>
      </trkpt>
      <trkpt lat="44.68734" lon="-0.08335">
        <ele>51.4</ele>
        <time>2016-01-22T10:59:34Z</time>
      </trkpt>
      <trkpt lat="44.68774" lon="-0.08376">
        <ele>50.1</ele>
        <time>2016-01-22T10:59:49Z</time>
      </trkpt>
      <trkpt lat="44.68819" lon="-0.08436">
        <ele>50.7</ele>
        <time>2016-01-22T11:00:06Z</time>
      </trkpt>
      <trkpt lat="44.68926" lon="-0.08572">
        <ele>52.9</ele>
        <time>2016-01-22T11:00:48Z</time>
      </trkpt>
      <trkpt lat="44.68953" lon="-0.08612">
        <ele>53.6</ele>
        <time>2016-01-22T11:00:59Z</time>
      </trkpt>
      <trkpt lat="44.68981" lon="-0.08669">
        <ele>53.5</ele>
        <time>2016-01-22T11:01:13Z</time>
      </trkpt>
      <trkpt lat="44.69027" lon="-0.08778">
        <ele>54.9</ele>
        <time>2016-01-22T11:01:39Z</time>
      </trkpt>
      <trkpt lat="44.69037" lon="-0.08849">
        <ele>56.1</ele>
        <time>2016-01-22T11:01:53Z</time>
      </trkpt>
      <trkpt lat="44.69046" lon="-0.0886">
        <ele>56.6</ele>
        <time>2016-01-22T11:01:57Z</time>
      </trkpt>
      <trkpt lat="44.69048" lon="-0.08903">
        <ele>55.2</ele>
        <time>2016-01-22T11:02:06Z</time>
      </trkpt>
      <trkpt lat="44.6905" lon="-0.09222">
        <ele>62.2</ele>
        <time>2016-01-22T11:03:11Z</time>
      </trkpt>
      <trkpt lat="44.6905" lon="-0.09292">
        <ele>62.4</ele>
        <time>2016-01-22T11:03:25Z</time>
      </trkpt>
      <trkpt lat="44.69045" lon="-0.09363">
        <ele>61</ele>
        <time>2016-01-22T11:03:39Z</time>
      </trkpt>
      <trkpt lat="44.6896" lon="-0.0979">
        <ele>69.2</ele>
        <time>2016-01-22T11:05:10Z</time>
      </trkpt>
      <trkpt lat="44.68931" lon="-0.09925">
        <ele>71.5</ele>
        <time>2016-01-22T11:05:38Z</time>
      </trkpt>
      <trkpt lat="44.68918" lon="-0.09987">
        <ele>71.6</ele>
        <time>2016-01-22T11:05:52Z</time>
      </trkpt>
      <trkpt lat="44.68904" lon="-0.10028">
        <ele>73.5</ele>
        <time>2016-01-22T11:06:01Z</time>
      </trkpt>
      <trkpt lat="44.68884" lon="-0.10072">
        <ele>73.8</ele>
        <time>2016-01-22T11:06:12Z</time>
      </trkpt>
      <trkpt lat="44.68864" lon="-0.10108">
        <ele>74.4</ele>
        <time>2016-01-22T11:06:21Z</time>
      </trkpt>
      <trkpt lat="44.68831" lon="-0.10151">
        <ele>76.7</ele>
        <time>2016-01-22T11:06:34Z</time>
      </trkpt>
      <trkpt lat="44.6879" lon="-0.10189">
        <ele>77.7</ele>
        <time>2016-01-22T11:06:48Z</time>
      </trkpt>
      <trkpt lat="44.68744" lon="-0.10216">
        <ele>78.9</ele>
        <time>2016-01-22T11:07:02Z</time>
      </trkpt>
      <trkpt lat="44.68643" lon="-0.10274">
        <ele>78.7</ele>
        <time>2016-01-22T11:07:33Z</time>
      </trkpt>
      <trkpt lat="44.6861" lon="-0.10297">
        <ele>79</ele>
        <time>2016-01-22T11:07:44Z</time>
      </trkpt>
      <trkpt lat="44.68589" lon="-0.10317">
        <ele>79.2</ele>
        <time>2016-01-22T11:07:51Z</time>
      </trkpt>
      <trkpt lat="44.68544" lon="-0.10382">
        <ele>78.6</ele>
        <time>2016-01-22T11:08:10Z</time>
      </trkpt>
      <trkpt lat="44.6852" lon="-0.1043">
        <ele>79</ele>
        <time>2016-01-22T11:08:21Z</time>
      </trkpt>
      <trkpt lat="44.68503" lon="-0.10481">
        <ele>80.2</ele>
        <time>2016-01-22T11:08:33Z</time>
      </trkpt>
      <trkpt lat="44.68493" lon="-0.10529">
        <ele>82.1</ele>
        <time>2016-01-22T11:08:43Z</time>
      </trkpt>
      <trkpt lat="44.68488" lon="-0.1056">
        <ele>83.2</ele>
        <time>2016-01-22T11:08:50Z</time>
      </trkpt>
      <trkpt lat="44.68484" lon="-0.10773">
        <ele>88.4</ele>
        <time>2016-01-22T11:09:33Z</time>
      </trkpt>
      <trkpt lat="44.68484" lon="-0.10971">
        <ele>85.8</ele>
        <time>2016-01-22T11:10:13Z</time>
      </trkpt>
      <trkpt lat="44.68484" lon="-0.1111">
        <ele>83.4</ele>
        <time>2016-01-22T11:10:42Z</time>
      </trkpt>
      <trkpt lat="44.68483" lon="-0.11268">
        <ele>84</ele>
        <time>2016-01-22T11:11:14Z</time>
      </trkpt>
      <trkpt lat="44.6848" lon="-0.11279">
        <ele>84</ele>
        <time>2016-01-22T11:11:16Z</time>
      </trkpt>
    </trkseg>
  </trk>
</gpx>